createdAt,value
2016-05-05T00:00:00.273Z,1021.33
2016-05-05T00:01:00.307Z,1021.33
2016-05-05T00:02:00.342Z,1021.34
2016-05-05T00:03:00.375Z,1021.34
2016-05-05T00:04:00.409Z,1021.31
2016-05-05T00:05:00.442Z,1021.33
2016-05-05T00:06:00.477Z,1021.28
2016-05-05T00:07:00.511Z,1021.25
2016-05-05T00:08:00.529Z,1021.27
2016-05-05T00:09:00.564Z,1021.23
2016-05-05T00:10:00.597Z,1021.3
2016-05-05T00:11:00.631Z,1021.26
2016-05-05T00:12:00.649Z,1021.27
2016-05-05T00:13:00.699Z,1021.23
2016-05-05T00:14:00.717Z,1021.26
2016-05-05T00:15:00.751Z,1021.26
2016-05-05T00:16:00.785Z,1021.28
2016-05-05T00:17:00.818Z,1021.27
2016-05-05T00:18:00.853Z,1021.24
2016-05-05T00:19:00.871Z,1021.25
2016-05-05T00:20:00.921Z,1021.28
2016-05-05T00:21:00.940Z,1021.24
2016-05-05T00:22:00.973Z,1021.25
2016-05-05T00:23:01.007Z,1021.22
2016-05-05T00:24:01.041Z,1021.25
2016-05-05T00:25:01.075Z,1021.27
2016-05-05T00:26:01.093Z,1021.27
2016-05-05T00:27:01.127Z,1021.25
2016-05-05T00:28:01.161Z,1021.25
2016-05-05T00:29:01.195Z,1021.23
2016-05-05T00:30:01.228Z,1021.26
2016-05-05T00:31:01.263Z,1021.24
2016-05-05T00:32:01.297Z,1021.24
2016-05-05T00:33:01.330Z,1021.24
2016-05-05T00:34:01.350Z,1021.19
2016-05-05T00:35:01.383Z,1021.2
2016-05-05T00:36:01.433Z,1021.15
2016-05-05T00:37:01.451Z,1021.18
2016-05-05T00:38:01.485Z,1021.19
2016-05-05T00:39:01.519Z,1021.23
2016-05-05T00:40:01.552Z,1021.23
2016-05-05T00:41:01.571Z,1021.18
2016-05-05T00:42:01.605Z,1021.19
2016-05-05T00:43:01.639Z,1021.21
2016-05-05T00:44:01.672Z,1021.2
2016-05-05T00:45:01.691Z,1021.2
2016-05-05T00:46:01.724Z,1021.18
2016-05-05T00:47:01.760Z,1021.21
2016-05-05T00:48:01.793Z,1021.19
2016-05-05T00:49:01.827Z,1021.19
2016-05-05T00:50:01.860Z,1021.23
2016-05-05T00:51:01.896Z,1021.21
2016-05-05T00:52:01.913Z,1021.17
2016-05-05T00:53:01.947Z,1021.21
2016-05-05T00:54:01.981Z,1021.17
2016-05-05T00:55:02.031Z,1021.18
2016-05-05T00:56:02.049Z,1021.17
2016-05-05T00:57:02.068Z,1021.18
2016-05-05T00:58:02.102Z,1021.17
2016-05-05T00:59:02.135Z,1021.18
2016-05-05T01:00:02.169Z,1021.18
2016-05-05T01:01:02.203Z,1021.17
2016-05-05T01:02:02.237Z,1021.21
2016-05-05T01:03:02.255Z,1021.2
2016-05-05T01:04:02.305Z,1021.16
2016-05-05T01:05:02.323Z,1021.16
2016-05-05T01:06:02.357Z,1021.18
2016-05-05T01:07:02.391Z,1021.17
2016-05-05T01:08:02.425Z,1021.16
2016-05-05T01:09:02.989Z,1021.14
2016-05-05T01:10:02.477Z,1021.13
2016-05-05T01:11:02.511Z,1021.14
2016-05-05T01:12:02.544Z,1021.16
2016-05-05T01:13:02.579Z,1021.14
2016-05-05T01:14:02.597Z,1021.13
2016-05-05T01:15:02.631Z,1021.12
2016-05-05T01:16:02.666Z,1021.15
2016-05-05T01:17:02.699Z,1021.11
2016-05-05T01:18:02.733Z,1021.16
2016-05-05T01:19:02.766Z,1021.15
2016-05-05T01:20:02.785Z,1021.14
2016-05-05T01:21:02.819Z,1021.13
2016-05-05T01:22:02.854Z,1021.12
2016-05-05T01:23:02.887Z,1021.12
2016-05-05T01:24:02.921Z,1021.13
2016-05-05T01:25:02.940Z,1021.08
2016-05-05T01:26:02.974Z,1021.09
2016-05-05T01:27:03.007Z,1021.07
2016-05-05T01:28:03.041Z,1021.09
2016-05-05T01:29:03.075Z,1021.08
2016-05-05T01:30:03.093Z,1021.06
2016-05-05T01:31:03.143Z,1021.06
2016-05-05T01:32:03.162Z,1021.04
2016-05-05T01:33:03.195Z,1021.06
2016-05-05T01:34:03.229Z,1021.06
2016-05-05T01:35:03.264Z,1021.06
2016-05-05T01:36:03.282Z,1021.05
2016-05-05T01:37:03.315Z,1021.03
2016-05-05T01:38:03.350Z,1021.06
2016-05-05T01:39:03.383Z,1021.05
2016-05-05T01:40:03.417Z,1021.05
2016-05-05T01:41:03.436Z,1021.06
2016-05-05T01:42:03.470Z,1021.01
2016-05-05T01:43:03.503Z,1021.02
2016-05-05T01:44:03.538Z,1021.04
2016-05-05T01:45:03.556Z,1021.05
2016-05-05T01:46:03.589Z,1021.04
2016-05-05T01:47:03.623Z,1021.05
2016-05-05T01:48:03.657Z,1021.03
2016-05-05T01:49:03.691Z,1021.07
2016-05-05T01:50:03.725Z,1021.09
2016-05-05T01:51:03.744Z,1021.11
2016-05-05T01:52:03.798Z,1021.1
2016-05-05T01:53:03.875Z,1021.09
2016-05-05T01:54:03.952Z,1021.14
2016-05-05T01:55:04.012Z,1021.07
2016-05-05T01:56:04.089Z,1021.08
2016-05-05T01:57:04.152Z,1021.04
2016-05-05T01:58:04.201Z,1021.07
2016-05-05T01:59:04.250Z,1021.05
2016-05-05T02:00:04.284Z,1021.07
2016-05-05T02:01:04.334Z,1021.09
2016-05-05T02:02:04.379Z,1021.07
2016-05-05T02:03:04.419Z,1021.07
2016-05-05T02:05:04.483Z,1021.07
2016-05-05T02:06:04.522Z,1021.09
2016-05-05T02:07:04.559Z,1021.09
2016-05-05T02:08:04.595Z,1021.11
2016-05-05T02:09:04.616Z,1021.08
2016-05-05T02:10:04.651Z,1021.04
2016-05-05T02:11:04.687Z,1021.05
2016-05-05T02:12:04.723Z,1021.04
2016-05-05T02:13:04.758Z,1021.01
2016-05-05T02:14:04.776Z,1021.04
2016-05-05T02:15:04.812Z,1021.03
2016-05-05T02:16:04.845Z,1021.05
2016-05-05T02:17:04.880Z,1021.11
2016-05-05T02:18:04.899Z,1021.07
2016-05-05T02:19:04.933Z,1021.1
2016-05-05T02:20:04.968Z,1021.1
2016-05-05T02:21:05.002Z,1021.07
2016-05-05T02:22:05.037Z,1021.07
2016-05-05T02:23:05.057Z,1021.06
2016-05-05T02:24:05.090Z,1021.08
2016-05-05T02:25:05.124Z,1021.08
2016-05-05T02:26:05.157Z,1021.08
2016-05-05T02:27:05.176Z,1021.11
2016-05-05T02:28:05.226Z,1021.07
2016-05-05T02:29:05.245Z,1021.09
2016-05-05T02:30:05.279Z,1021.09
2016-05-05T02:31:05.296Z,1021.08
2016-05-05T02:32:05.331Z,1021.09
2016-05-05T02:33:05.364Z,1021.09
2016-05-05T02:34:05.398Z,1021.11
2016-05-05T02:35:05.432Z,1021.06
2016-05-05T02:36:05.466Z,1021.09
2016-05-05T02:37:05.484Z,1021.1
2016-05-05T02:38:05.519Z,1021.09
2016-05-05T02:39:05.553Z,1021.05
2016-05-05T02:40:05.571Z,1021.07
2016-05-05T02:41:05.605Z,1021.08
2016-05-05T02:42:05.639Z,1021.04
2016-05-05T02:43:05.672Z,1021.05
2016-05-05T02:44:05.707Z,1021.12
2016-05-05T02:45:05.725Z,1021.09
2016-05-05T02:46:05.758Z,1021.1
2016-05-05T02:47:05.793Z,1021.07
2016-05-05T02:48:05.827Z,1021.09
2016-05-05T02:49:05.844Z,1021.08
2016-05-05T02:50:05.880Z,1021.05
2016-05-05T02:51:05.913Z,1021.07
2016-05-05T02:52:05.947Z,1021.06
2016-05-05T02:53:05.965Z,1021.08
2016-05-05T02:54:06.374Z,1021.1
2016-05-05T02:55:06.033Z,1021.09
2016-05-05T02:56:06.068Z,1021.08
2016-05-05T02:57:06.085Z,1021.12
2016-05-05T02:58:06.119Z,1021.12
2016-05-05T02:59:06.154Z,1021.09
2016-05-05T03:00:06.188Z,1021.13
2016-05-05T03:01:06.206Z,1021.17
2016-05-05T03:02:06.240Z,1021.15
2016-05-05T03:03:06.273Z,1021.2
2016-05-05T03:04:06.307Z,1021.18
2016-05-05T03:05:06.342Z,1021.21
2016-05-05T03:06:06.375Z,1021.16
2016-05-05T03:07:06.409Z,1021.2
2016-05-05T03:08:06.428Z,1021.22
2016-05-05T03:09:06.462Z,1021.19
2016-05-05T03:10:06.495Z,1021.2
2016-05-05T03:11:06.513Z,1021.19
2016-05-05T03:12:06.547Z,1021.21
2016-05-05T03:13:06.581Z,1021.23
2016-05-05T03:14:06.616Z,1021.21
2016-05-05T03:15:06.633Z,1021.2
2016-05-05T03:16:06.667Z,1021.2
2016-05-05T03:17:06.702Z,1021.19
2016-05-05T03:18:06.736Z,1021.18
2016-05-05T03:19:06.755Z,1021.21
2016-05-05T03:20:06.788Z,1021.17
2016-05-05T03:21:06.821Z,1021.18
2016-05-05T03:22:06.855Z,1021.16
2016-05-05T03:23:06.874Z,1021.17
2016-05-05T03:24:06.908Z,1021.16
2016-05-05T03:25:06.942Z,1021.16
2016-05-05T03:26:06.976Z,1021.13
2016-05-05T03:27:06.994Z,1021.17
2016-05-05T03:28:07.028Z,1021.14
2016-05-05T03:29:07.063Z,1021.15
2016-05-05T03:30:07.112Z,1021.15
2016-05-05T03:31:07.114Z,1021.1
2016-05-05T03:32:07.148Z,1021.11
2016-05-05T03:33:07.182Z,1021.13
2016-05-05T03:34:07.216Z,1021.13
2016-05-05T03:35:07.235Z,1021.15
2016-05-05T03:36:07.268Z,1021.16
2016-05-05T03:37:07.303Z,1021.17
2016-05-05T03:38:07.337Z,1021.16
2016-05-05T03:39:07.354Z,1021.13
2016-05-05T03:40:07.389Z,1021.14
2016-05-05T03:41:07.422Z,1021.17
2016-05-05T03:42:07.441Z,1021.19
2016-05-05T03:43:07.475Z,1021.2
2016-05-05T03:44:07.509Z,1021.15
2016-05-05T03:45:07.542Z,1021.15
2016-05-05T03:46:07.577Z,1021.15
2016-05-05T03:47:07.611Z,1021.13
2016-05-05T03:48:07.629Z,1021.12
2016-05-05T03:49:07.663Z,1021.11
2016-05-05T03:50:07.696Z,1021.12
2016-05-05T03:51:07.715Z,1021.15
2016-05-05T03:52:07.749Z,1021.12
2016-05-05T03:53:07.782Z,1021.1
2016-05-05T03:54:07.816Z,1021.14
2016-05-05T03:55:07.835Z,1021.13
2016-05-05T03:56:07.869Z,1021.13
2016-05-05T03:57:07.903Z,1021.13
2016-05-05T03:58:07.937Z,1021.17
2016-05-05T03:59:07.955Z,1021.18
2016-05-05T04:00:07.989Z,1021.16
2016-05-05T04:01:08.023Z,1021.11
2016-05-05T04:02:08.041Z,1021.11
2016-05-05T04:03:08.075Z,1021.12
2016-05-05T04:04:08.109Z,1021.13
2016-05-05T04:05:08.143Z,1021.12
2016-05-05T04:06:08.162Z,1021.08
2016-05-05T04:07:08.196Z,1021.16
2016-05-05T04:08:08.229Z,1021.14
2016-05-05T04:09:08.264Z,1021.13
2016-05-05T04:10:08.281Z,1021.1
2016-05-05T04:11:08.315Z,1021.14
2016-05-05T04:12:08.350Z,1021.11
2016-05-05T04:13:08.384Z,1021.14
2016-05-05T04:14:08.402Z,1021.18
2016-05-05T04:15:08.451Z,1021.16
2016-05-05T04:16:08.470Z,1021.11
2016-05-05T04:17:08.504Z,1021.15
2016-05-05T04:18:08.522Z,1021.14
2016-05-05T04:19:08.556Z,1021.13
2016-05-05T04:20:08.589Z,1021.14
2016-05-05T04:21:08.608Z,1021.12
2016-05-05T04:22:08.642Z,1021.12
2016-05-05T04:23:08.676Z,1021.1
2016-05-05T04:24:08.710Z,1021.08
2016-05-05T04:25:08.728Z,1021.11
2016-05-05T04:26:08.763Z,1021.1
2016-05-05T04:27:08.797Z,1021.07
2016-05-05T04:28:08.830Z,1021.09
2016-05-05T04:29:08.864Z,1021.08
2016-05-05T04:30:08.882Z,1021.06
2016-05-05T04:31:08.916Z,1021.04
2016-05-05T04:32:08.951Z,1021.07
2016-05-05T04:33:08.968Z,1021.07
2016-05-05T04:34:09.002Z,1021.06
2016-05-05T04:35:09.036Z,1021.03
2016-05-05T04:36:09.055Z,1021.06
2016-05-05T04:37:09.089Z,1021.06
2016-05-05T04:38:09.123Z,1021.06
2016-05-05T04:39:09.157Z,1021.05
2016-05-05T04:40:09.175Z,1021.09
2016-05-05T04:41:09.209Z,1021.09
2016-05-05T04:42:09.243Z,1021.09
2016-05-05T04:43:09.276Z,1021.09
2016-05-05T04:44:09.311Z,1021.03
2016-05-05T04:45:09.329Z,1021.02
2016-05-05T04:46:09.364Z,1021.02
2016-05-05T04:47:09.397Z,1021.04
2016-05-05T04:48:09.430Z,1021.01
2016-05-05T04:49:09.465Z,1021.04
2016-05-05T04:50:09.483Z,1021.05
2016-05-05T04:51:09.517Z,1021.05
2016-05-05T04:52:09.550Z,1021.03
2016-05-05T04:53:09.570Z,1021.07
2016-05-05T04:54:09.603Z,1021.01
2016-05-05T04:55:09.637Z,1021.02
2016-05-05T04:56:09.672Z,1021.04
2016-05-05T04:57:09.689Z,1021.03
2016-05-05T04:58:09.723Z,1021.05
2016-05-05T04:59:09.758Z,1021.03
2016-05-05T05:00:09.791Z,1021.04
2016-05-05T05:01:09.825Z,1021.04
2016-05-05T05:02:09.844Z,1021.03
2016-05-05T05:03:09.877Z,1021.07
2016-05-05T05:04:09.911Z,1021.09
2016-05-05T05:05:09.945Z,1021.05
2016-05-05T05:06:09.980Z,1021.1
2016-05-05T05:07:09.998Z,1021.05
2016-05-05T05:08:10.032Z,1021.08
2016-05-05T05:09:10.393Z,1021.02
2016-05-05T05:10:10.099Z,1021.03
2016-05-05T05:11:10.133Z,1021.04
2016-05-05T05:12:10.152Z,1021.03
2016-05-05T05:13:10.186Z,1021.03
2016-05-05T05:14:10.220Z,1021.06
2016-05-05T05:15:10.254Z,1021.06
2016-05-05T05:16:10.287Z,1021.05
2016-05-05T05:17:10.305Z,1021.02
2016-05-05T05:18:10.339Z,1021
2016-05-05T05:19:10.373Z,1021
2016-05-05T05:20:10.408Z,1020.99
2016-05-05T05:21:10.442Z,1021.01
2016-05-05T05:22:10.475Z,1021.01
2016-05-05T05:23:10.494Z,1021.05
2016-05-05T05:24:10.528Z,1020.97
2016-05-05T05:25:10.561Z,1020.99
2016-05-05T05:26:10.596Z,1020.95
2016-05-05T05:27:10.613Z,1021.01
2016-05-05T05:28:10.647Z,1020.98
2016-05-05T05:29:10.682Z,1020.96
2016-05-05T05:30:10.716Z,1021.02
2016-05-05T05:31:10.749Z,1020.97
2016-05-05T05:32:10.783Z,1021.01
2016-05-05T05:33:10.802Z,1020.99
2016-05-05T05:34:10.835Z,1020.98
2016-05-05T05:35:10.870Z,1021
2016-05-05T05:36:10.904Z,1021.02
2016-05-05T05:37:10.937Z,1021.01
2016-05-05T05:38:10.971Z,1021.02
2016-05-05T05:39:10.990Z,1020.96
2016-05-05T05:40:11.024Z,1021.01
2016-05-05T05:41:11.057Z,1020.98
2016-05-05T05:42:11.092Z,1020.98
2016-05-05T05:43:11.125Z,1021.04
2016-05-05T05:44:11.159Z,1021.05
2016-05-05T05:45:11.178Z,1021.06
2016-05-05T05:46:11.212Z,1021.01
2016-05-05T05:47:11.245Z,1021.05
2016-05-05T05:48:11.280Z,1021.05
2016-05-05T05:49:11.314Z,1021.04
2016-05-05T05:50:11.331Z,1021.07
2016-05-05T05:51:11.366Z,1021.07
2016-05-05T05:52:11.400Z,1021.1
2016-05-05T05:53:11.433Z,1021.03
2016-05-05T05:54:11.467Z,1021.1
2016-05-05T05:55:11.486Z,1021.06
2016-05-05T05:56:11.519Z,1021.09
2016-05-05T05:57:11.554Z,1021.09
2016-05-05T05:58:11.588Z,1021.1
2016-05-05T05:59:11.622Z,1021.08
2016-05-05T06:00:11.655Z,1021.13
2016-05-05T06:01:11.674Z,1021.12
2016-05-05T06:02:11.707Z,1021.11
2016-05-05T06:03:11.741Z,1021.14
2016-05-05T06:04:11.776Z,1021.12
2016-05-05T06:05:11.810Z,1021.13
2016-05-05T06:06:11.844Z,1021.12
2016-05-05T06:07:11.862Z,1021.12
2016-05-05T06:08:11.895Z,1021.09
2016-05-05T06:09:11.929Z,1021.12
2016-05-05T06:10:11.965Z,1021.1
2016-05-05T06:11:11.998Z,1021.12
2016-05-05T06:12:12.031Z,1021.09
2016-05-05T06:13:12.065Z,1021.13
2016-05-05T06:14:12.084Z,1021.14
2016-05-05T06:15:12.117Z,1021.08
2016-05-05T06:16:12.151Z,1021.11
2016-05-05T06:17:12.186Z,1021.14
2016-05-05T06:18:12.219Z,1021.1
2016-05-05T06:19:12.238Z,1021.1
2016-05-05T06:20:12.272Z,1021.09
2016-05-05T06:21:12.306Z,1021.07
2016-05-05T06:22:12.339Z,1021.11
2016-05-05T06:23:12.368Z,1021.06
2016-05-05T06:24:12.402Z,1021.07
2016-05-05T06:25:12.435Z,1021.05
2016-05-05T06:26:12.470Z,1021.05
2016-05-05T06:27:12.488Z,1021.03
2016-05-05T06:28:12.521Z,1021.08
2016-05-05T06:29:12.556Z,1021.03
2016-05-05T06:30:12.590Z,1021.03
2016-05-05T06:31:12.624Z,1021.04
2016-05-05T06:32:12.658Z,1021.05
2016-05-05T06:33:12.692Z,1021.03
2016-05-05T06:34:12.726Z,1021.02
2016-05-05T06:35:12.743Z,1021.03
2016-05-05T06:36:12.778Z,1021.03
2016-05-05T06:37:12.812Z,1021.02
2016-05-05T06:38:12.845Z,1021.03
2016-05-05T06:39:12.879Z,1020.99
2016-05-05T06:40:12.914Z,1020.99
2016-05-05T06:41:12.931Z,1020.92
2016-05-05T06:42:12.967Z,1021
2016-05-05T06:43:13.000Z,1020.98
2016-05-05T06:44:13.034Z,1020.98
2016-05-05T06:45:13.067Z,1020.96
2016-05-05T06:46:13.102Z,1020.97
2016-05-05T06:47:13.136Z,1020.96
2016-05-05T06:48:13.169Z,1020.98
2016-05-05T06:49:13.188Z,1020.95
2016-05-05T06:50:13.238Z,1020.95
2016-05-05T06:51:13.271Z,1020.95
2016-05-05T06:52:13.289Z,1020.94
2016-05-05T06:53:13.324Z,1020.95
2016-05-05T06:54:13.358Z,1020.97
2016-05-05T06:55:13.391Z,1020.96
2016-05-05T06:56:13.425Z,1020.95
2016-05-05T06:57:13.460Z,1020.97
2016-05-05T06:58:13.493Z,1021
2016-05-05T06:59:13.512Z,1020.93
2016-05-05T07:00:13.560Z,1020.99
2016-05-05T07:01:13.580Z,1020.95
2016-05-05T07:02:13.613Z,1020.97
2016-05-05T07:03:13.648Z,1020.93
2016-05-05T07:04:13.697Z,1020.9
2016-05-05T07:05:13.716Z,1020.93
2016-05-05T07:06:13.749Z,1020.9
2016-05-05T07:07:13.784Z,1020.9
2016-05-05T07:08:13.817Z,1020.86
2016-05-05T07:09:13.851Z,1020.89
2016-05-05T07:10:13.885Z,1020.88
2016-05-05T07:11:13.903Z,1020.85
2016-05-05T07:12:13.937Z,1020.87
2016-05-05T07:13:13.971Z,1020.85
2016-05-05T07:14:14.006Z,1020.85
2016-05-05T07:15:14.039Z,1020.87
2016-05-05T07:16:14.072Z,1020.86
2016-05-05T07:17:14.107Z,1020.83
2016-05-05T07:18:14.141Z,1020.81
2016-05-05T07:19:14.175Z,1020.87
2016-05-05T07:20:14.193Z,1020.86
2016-05-05T07:21:14.242Z,1020.83
2016-05-05T07:22:14.277Z,1020.82
2016-05-05T07:23:14.294Z,1020.83
2016-05-05T07:24:14.329Z,1020.84
2016-05-05T07:25:14.363Z,1020.79
2016-05-05T07:26:14.397Z,1020.78
2016-05-05T07:27:14.430Z,1020.78
2016-05-05T07:28:14.465Z,1020.75
2016-05-05T07:29:14.499Z,1020.76
2016-05-05T07:30:14.533Z,1020.75
2016-05-05T07:31:14.566Z,1020.75
2016-05-05T07:32:14.601Z,1020.79
2016-05-05T07:33:14.635Z,1020.77
2016-05-05T07:34:14.668Z,1020.77
2016-05-05T07:35:14.702Z,1020.77
2016-05-05T07:36:14.737Z,1020.77
2016-05-05T07:37:14.770Z,1020.74
2016-05-05T07:38:14.804Z,1020.76
2016-05-05T07:39:14.837Z,1020.78
2016-05-05T07:40:14.873Z,1020.77
2016-05-05T07:41:14.906Z,1020.73
2016-05-05T07:42:14.923Z,1020.74
2016-05-05T07:43:14.959Z,1020.67
2016-05-05T07:44:15.008Z,1020.7
2016-05-05T07:45:15.026Z,1020.68
2016-05-05T07:46:15.075Z,1020.65
2016-05-05T07:47:15.109Z,1020.59
2016-05-05T07:48:15.144Z,1020.62
2016-05-05T07:49:15.177Z,1020.61
2016-05-05T07:50:15.212Z,1020.58
2016-05-05T07:51:15.245Z,1020.64
2016-05-05T07:52:15.280Z,1020.63
2016-05-05T07:53:15.313Z,1020.65
2016-05-05T07:54:15.456Z,1020.62
2016-05-05T07:55:15.380Z,1020.63
2016-05-05T07:56:15.415Z,1020.57
2016-05-05T07:57:15.464Z,1020.57
2016-05-05T07:58:15.499Z,1020.58
2016-05-05T07:59:15.533Z,1020.59
2016-05-05T08:00:15.566Z,1020.58
2016-05-05T08:01:15.616Z,1020.57
2016-05-05T08:02:15.649Z,1020.53
2016-05-05T08:03:15.684Z,1020.53
2016-05-05T08:04:15.733Z,1020.51
2016-05-05T08:05:15.768Z,1020.6
2016-05-05T08:06:15.802Z,1020.53
2016-05-05T08:07:15.851Z,1020.53
2016-05-05T08:08:15.900Z,1020.55
2016-05-05T08:09:15.935Z,1020.52
2016-05-05T08:10:15.968Z,1020.54
2016-05-05T08:11:16.018Z,1020.5
2016-05-05T08:12:16.051Z,1020.52
2016-05-05T08:13:16.101Z,1020.5
2016-05-05T08:14:16.135Z,1020.49
2016-05-05T08:15:16.170Z,1020.51
2016-05-05T08:16:16.219Z,1020.51
2016-05-05T08:17:16.267Z,1020.52
2016-05-05T08:18:16.303Z,1020.56
2016-05-05T08:19:16.336Z,1020.52
2016-05-05T08:20:16.386Z,1020.46
2016-05-05T08:21:16.436Z,1020.47
2016-05-05T08:22:16.470Z,1020.42
2016-05-05T08:23:16.519Z,1020.43
2016-05-05T08:24:16.553Z,1020.43
2016-05-05T08:25:16.602Z,1020.42
2016-05-05T08:26:16.636Z,1020.41
2016-05-05T08:27:16.686Z,1020.46
2016-05-05T08:28:16.736Z,1020.4
2016-05-05T08:29:16.769Z,1020.4
2016-05-05T08:30:16.819Z,1020.41
2016-05-05T08:31:16.869Z,1020.38
2016-05-05T08:32:16.902Z,1020.35
2016-05-05T08:33:16.952Z,1020.36
2016-05-05T08:34:16.986Z,1020.34
2016-05-05T08:35:17.035Z,1020.33
2016-05-05T08:36:17.085Z,1020.28
2016-05-05T08:37:17.135Z,1020.3
2016-05-05T08:38:17.168Z,1020.27
2016-05-05T08:39:17.218Z,1020.28
2016-05-05T08:40:17.267Z,1020.32
2016-05-05T08:41:17.301Z,1020.26
2016-05-05T08:42:17.351Z,1020.27
2016-05-05T08:43:17.401Z,1020.21
2016-05-05T08:44:17.434Z,1020.2
2016-05-05T08:45:17.501Z,1020.17
2016-05-05T08:46:17.534Z,1020.1
2016-05-05T08:47:17.583Z,1020.19
2016-05-05T08:48:17.617Z,1020.22
2016-05-05T08:49:17.667Z,1020.14
2016-05-05T08:50:17.717Z,1020.2
2016-05-05T08:51:17.750Z,1020.18
2016-05-05T08:52:17.800Z,1020.13
2016-05-05T08:53:17.850Z,1020.18
2016-05-05T08:54:17.883Z,1020.11
2016-05-05T08:55:17.933Z,1020.12
2016-05-05T08:56:17.983Z,1020.13
2016-05-05T08:57:18.017Z,1020.13
2016-05-05T08:58:18.066Z,1020.04
2016-05-05T08:59:18.115Z,1020.04
2016-05-05T09:00:18.150Z,1020.05
2016-05-05T09:01:18.200Z,1019.98
2016-05-05T09:02:18.232Z,1019.99
2016-05-05T09:03:18.283Z,1019.98
2016-05-05T09:04:18.332Z,1019.97
2016-05-05T09:05:18.366Z,1019.96
2016-05-05T09:06:18.415Z,1019.99
2016-05-05T09:07:18.449Z,1020.04
2016-05-05T09:08:18.499Z,1020.01
2016-05-05T09:09:18.955Z,1020.03
2016-05-05T09:10:18.582Z,1020.04
2016-05-05T09:11:18.617Z,1019.99
2016-05-05T09:12:18.666Z,1020.02
2016-05-05T09:13:18.701Z,1019.97
2016-05-05T09:14:18.734Z,1019.98
2016-05-05T09:15:18.784Z,1019.94
2016-05-05T09:16:18.818Z,1019.93
2016-05-05T09:17:18.868Z,1019.91
2016-05-05T09:18:18.900Z,1019.92
2016-05-05T09:19:18.951Z,1019.93
2016-05-05T09:20:18.984Z,1019.93
2016-05-05T09:21:19.034Z,1019.92
2016-05-05T09:22:19.068Z,1019.97
2016-05-05T09:23:19.117Z,1019.9
2016-05-05T09:24:19.152Z,1019.87
2016-05-05T09:25:19.200Z,1019.91
2016-05-05T09:26:19.236Z,1019.94
2016-05-05T09:27:19.285Z,1019.87
2016-05-05T09:28:19.319Z,1019.9
2016-05-05T09:29:19.369Z,1019.93
2016-05-05T09:30:19.420Z,1019.89
2016-05-05T09:31:19.442Z,1019.88
2016-05-05T09:32:19.495Z,1019.85
2016-05-05T09:33:19.544Z,1019.82
2016-05-05T09:34:19.577Z,1019.77
2016-05-05T09:35:19.627Z,1019.71
2016-05-05T09:36:19.661Z,1019.77
2016-05-05T09:37:19.710Z,1019.75
2016-05-05T09:38:19.759Z,1019.72
2016-05-05T09:39:19.794Z,1019.73
2016-05-05T09:40:19.843Z,1019.73
2016-05-05T09:41:19.893Z,1019.68
2016-05-05T09:42:19.932Z,1019.73
2016-05-05T09:43:19.971Z,1019.72
2016-05-05T09:44:20.020Z,1019.72
2016-05-05T09:45:20.053Z,1019.71
2016-05-05T09:46:20.104Z,1019.69
2016-05-05T09:47:20.153Z,1019.73
2016-05-05T09:48:20.578Z,1019.74
2016-05-05T09:49:20.237Z,1019.7
2016-05-05T09:50:20.286Z,1019.72
2016-05-05T09:51:20.336Z,1019.67
2016-05-05T09:52:20.386Z,1019.7
2016-05-05T09:53:20.419Z,1019.74
2016-05-05T09:54:20.469Z,1019.75
2016-05-05T09:55:20.519Z,1019.75
2016-05-05T09:56:20.568Z,1019.72
2016-05-05T09:57:20.617Z,1019.7
2016-05-05T09:58:20.652Z,1019.61
2016-05-05T09:59:20.716Z,1019.63
2016-05-05T10:00:20.750Z,1019.64
2016-05-05T10:01:20.800Z,1019.6
2016-05-05T10:02:20.834Z,1019.58
2016-05-05T10:03:20.899Z,1019.59
2016-05-05T10:04:20.932Z,1019.59
2016-05-05T10:05:20.982Z,1019.54
2016-05-05T10:06:21.016Z,1019.56
2016-05-05T10:07:21.066Z,1019.53
2016-05-05T10:08:21.115Z,1019.56
2016-05-05T10:09:21.165Z,1019.52
2016-05-05T10:10:21.840Z,1019.49
2016-05-05T10:11:21.248Z,1019.49
2016-05-05T10:12:21.299Z,1019.46
2016-05-05T10:13:21.348Z,1019.5
2016-05-05T10:14:21.381Z,1019.41
2016-05-05T10:15:21.432Z,1019.46
2016-05-05T10:16:21.481Z,1019.44
2016-05-05T10:17:21.530Z,1019.44
2016-05-05T10:18:21.581Z,1019.37
2016-05-05T10:19:21.614Z,1019.34
2016-05-05T10:20:21.678Z,1019.31
2016-05-05T10:21:21.714Z,1019.26
2016-05-05T10:22:21.763Z,1019.22
2016-05-05T10:23:21.812Z,1019.3
2016-05-05T10:24:21.924Z,1019.23
2016-05-05T10:25:21.896Z,1019.21
2016-05-05T10:26:21.945Z,1019.2
2016-05-05T10:27:21.995Z,1019.23
2016-05-05T10:28:22.310Z,1019.2
2016-05-05T10:29:22.094Z,1019.13
2016-05-05T10:30:22.143Z,1019.12
2016-05-05T10:31:22.177Z,1019.18
2016-05-05T10:32:22.228Z,1019.17
2016-05-05T10:33:22.277Z,1019.2
2016-05-05T10:34:22.327Z,1019.13
2016-05-05T10:35:22.376Z,1019.24
2016-05-05T10:36:22.426Z,1019.2
2016-05-05T10:37:22.475Z,1019.16
2016-05-05T10:38:22.524Z,1019.18
2016-05-05T10:39:22.699Z,1019.15
2016-05-05T10:40:22.607Z,1019.18
2016-05-05T10:41:22.657Z,1019.09
2016-05-05T10:42:22.707Z,1019.09
2016-05-05T10:43:22.757Z,1019.06
2016-05-05T10:44:22.790Z,1019.05
2016-05-05T10:45:22.856Z,1019.02
2016-05-05T10:46:22.890Z,1019.11
2016-05-05T10:47:22.956Z,1019
2016-05-05T10:48:22.989Z,1018.99
2016-05-05T10:49:23.039Z,1019.01
2016-05-05T10:50:23.088Z,1018.92
2016-05-05T10:51:23.137Z,1018.94
2016-05-05T10:52:23.187Z,1018.98
2016-05-05T10:53:23.236Z,1018.93
2016-05-05T10:54:23.692Z,1018.92
2016-05-05T10:55:23.317Z,1018.82
2016-05-05T10:56:23.367Z,1018.82
2016-05-05T10:57:23.417Z,1018.76
2016-05-05T10:58:23.501Z,1018.74
2016-05-05T10:59:23.594Z,1018.74
2016-05-05T11:00:23.687Z,1018.74
2016-05-05T11:01:23.781Z,1018.76
2016-05-05T11:02:23.873Z,1018.73
2016-05-05T11:03:23.946Z,1018.79
2016-05-05T11:04:23.997Z,1018.77
2016-05-05T11:05:24.061Z,1018.71
2016-05-05T11:06:24.143Z,1018.75
2016-05-05T11:07:24.192Z,1018.74
2016-05-05T11:08:24.251Z,1018.69
2016-05-05T11:09:24.306Z,1018.68
2016-05-05T11:10:24.361Z,1018.66
2016-05-05T11:11:24.416Z,1018.65
2016-05-05T11:12:24.471Z,1018.6
2016-05-05T11:13:24.522Z,1018.6
2016-05-05T11:14:24.559Z,1018.67
2016-05-05T11:15:24.610Z,1018.69
2016-05-05T11:16:24.677Z,1018.69
2016-05-05T11:17:24.712Z,1018.64
2016-05-05T11:18:24.764Z,1018.65
2016-05-05T11:19:24.814Z,1018.6
2016-05-05T11:20:24.864Z,1018.61
2016-05-05T11:21:24.915Z,1018.54
2016-05-05T11:22:24.965Z,1018.55
2016-05-05T11:23:25.012Z,1018.53
2016-05-05T11:24:25.062Z,1018.56
2016-05-05T11:25:25.111Z,1018.43
2016-05-05T11:26:25.161Z,1018.43
2016-05-05T11:27:25.211Z,1018.35
2016-05-05T11:28:25.261Z,1018.39
2016-05-05T11:29:25.295Z,1018.42
2016-05-05T11:30:25.344Z,1018.36
2016-05-05T11:31:25.411Z,1018.42
2016-05-05T11:32:25.445Z,1018.41
2016-05-05T11:33:25.494Z,1018.41
2016-05-05T11:34:25.543Z,1018.41
2016-05-05T11:35:25.608Z,1018.34
2016-05-05T11:36:25.658Z,1018.36
2016-05-05T11:37:25.691Z,1018.41
2016-05-05T11:38:25.741Z,1018.39
2016-05-05T11:39:25.792Z,1018.37
2016-05-05T11:40:25.841Z,1018.34
2016-05-05T11:41:25.891Z,1018.31
2016-05-05T11:42:25.940Z,1018.3
2016-05-05T11:43:25.990Z,1018.23
2016-05-05T11:44:26.038Z,1018.2
2016-05-05T11:45:26.089Z,1018.2
2016-05-05T11:46:26.138Z,1018.16
2016-05-05T11:47:26.188Z,1018.23
2016-05-05T11:48:26.237Z,1018.2
2016-05-05T11:49:26.287Z,1018.18
2016-05-05T11:50:26.337Z,1018.13
2016-05-05T11:51:26.386Z,1018.06
2016-05-05T11:52:26.435Z,1018.14
2016-05-05T11:53:26.485Z,1018.14
2016-05-05T11:54:26.535Z,1018.17
2016-05-05T11:55:26.585Z,1018.08
2016-05-05T11:56:26.634Z,1018.05
2016-05-05T11:57:26.684Z,1018.06
2016-05-05T11:58:26.733Z,1018.04
2016-05-05T11:59:26.783Z,1018.02
2016-05-05T12:00:26.831Z,1018.01
2016-05-05T12:01:26.881Z,1017.98
2016-05-05T12:02:26.931Z,1017.95
2016-05-05T12:03:26.997Z,1017.97
2016-05-05T12:04:27.031Z,1017.88
2016-05-05T12:05:27.080Z,1017.91
2016-05-05T12:06:27.130Z,1017.85
2016-05-05T12:07:27.194Z,1017.85
2016-05-05T12:08:27.228Z,1017.81
2016-05-05T12:09:27.294Z,1017.87